sensor_id;sensor_type;location;lat;lon;timestamp;P1;durP1;ratioP1;P2;durP2;ratioP2
45792;SDS011;31495;42.740;22.908;2022-11-25T00:00:29;4.68;;;2.55;;
45792;SDS011;31495;42.740;22.908;2022-11-25T00:01:30;4.18;;;2.30;;
45792;SDS011;31495;42.740;22.908;2022-11-25T00:02:31;4.10;;;2.03;;
45792;SDS011;31495;42.740;22.908;2022-11-25T00:03:31;5.45;;;1.90;;
45792;SDS011;31495;42.740;22.908;2022-11-25T00:04:31;3.80;;;2.10;;
45792;SDS011;31495;42.740;22.908;2022-11-25T00:05:34;4.07;;;2.58;;
45792;SDS011;31495;42.740;22.908;2022-11-25T00:06:34;4.68;;;1.95;;
45792;SDS011;31495;42.740;22.908;2022-11-25T00:07:34;4.03;;;2.35;;
45792;SDS011;31495;42.740;22.908;2022-11-25T00:08:34;5.47;;;3.20;;
45792;SDS011;31495;42.740;22.908;2022-11-25T00:09:35;8.00;;;3.15;;
45792;SDS011;31495;42.740;22.908;2022-11-25T00:10:34;5.95;;;2.90;;
45792;SDS011;31495;42.740;22.908;2022-11-25T00:11:35;3.72;;;2.33;;
45792;SDS011;31495;42.740;22.908;2022-11-25T00:12:35;3.33;;;2.38;;
45792;SDS011;31495;42.740;22.908;2022-11-25T00:13:34;6.00;;;2.33;;
45792;SDS011;31495;42.740;22.908;2022-11-25T00:14:34;6.70;;;3.15;;
45792;SDS011;31495;42.740;22.908;2022-11-25T00:15:34;5.03;;;2.55;;
45792;SDS011;31495;42.740;22.908;2022-11-25T00:16:33;6.43;;;2.40;;
45792;SDS011;31495;42.740;22.908;2022-11-25T00:17:33;6.07;;;2.38;;
45792;SDS011;31495;42.740;22.908;2022-11-25T00:18:32;5.97;;;3.08;;
45792;SDS011;31495;42.740;22.908;2022-11-25T00:19:32;5.30;;;2.55;;
45792;SDS011;31495;42.740;22.908;2022-11-25T00:20:32;4.63;;;2.42;;
45792;SDS011;31495;42.740;22.908;2022-11-25T00:21:32;4.38;;;1.67;;
45792;SDS011;31495;42.740;22.908;2022-11-25T00:22:32;4.00;;;2.03;;
45792;SDS011;31495;42.740;22.908;2022-11-25T00:23:31;3.95;;;1.83;;
45792;SDS011;31495;42.740;22.908;2022-11-25T00:24:31;3.17;;;1.83;;
45792;SDS011;31495;42.740;22.908;2022-11-25T00:25:30;3.90;;;1.65;;
45792;SDS011;31495;42.740;22.908;2022-11-25T00:26:30;4.85;;;2.58;;
45792;SDS011;31495;42.740;22.908;2022-11-25T00:27:31;4.32;;;2.20;;
45792;SDS011;31495;42.740;22.908;2022-11-25T00:28:30;3.40;;;1.95;;
45792;SDS011;31495;42.740;22.908;2022-11-25T00:29:30;4.70;;;2.13;;
45792;SDS011;31495;42.740;22.908;2022-11-25T00:30:29;2.88;;;1.83;;
45792;SDS011;31495;42.740;22.908;2022-11-25T00:31:30;4.78;;;2.35;;
45792;SDS011;31495;42.740;22.908;2022-11-25T00:32:31;5.60;;;2.17;;
45792;SDS011;31495;42.740;22.908;2022-11-25T00:33:30;3.05;;;1.33;;
45792;SDS011;31495;42.740;22.908;2022-11-25T00:34:30;4.63;;;1.42;;
45792;SDS011;31495;42.740;22.908;2022-11-25T00:35:29;4.82;;;1.63;;
45792;SDS011;31495;42.740;22.908;2022-11-25T00:37:31;2.30;;;1.17;;
45792;SDS011;31495;42.740;22.908;2022-11-25T00:38:30;3.05;;;1.70;;
45792;SDS011;31495;42.740;22.908;2022-11-25T00:39:30;2.60;;;1.45;;
45792;SDS011;31495;42.740;22.908;2022-11-25T00:40:29;3.20;;;1.33;;
45792;SDS011;31495;42.740;22.908;2022-11-25T00:41:29;3.88;;;2.10;;
45792;SDS011;31495;42.740;22.908;2022-11-25T00:42:48;3.65;;;1.98;;
45792;SDS011;31495;42.740;22.908;2022-11-25T00:44:08;3.42;;;1.67;;
45792;SDS011;31495;42.740;22.908;2022-11-25T00:45:27;8.13;;;2.85;;
45792;SDS011;31495;42.740;22.908;2022-11-25T00:46:26;3.47;;;1.92;;
45792;SDS011;31495;42.740;22.908;2022-11-25T00:47:26;5.40;;;2.13;;
45792;SDS011;31495;42.740;22.908;2022-11-25T00:48:25;4.65;;;2.25;;
45792;SDS011;31495;42.740;22.908;2022-11-25T00:49:24;4.75;;;2.75;;
45792;SDS011;31495;42.740;22.908;2022-11-25T00:50:24;4.05;;;2.28;;
45792;SDS011;31495;42.740;22.908;2022-11-25T00:51:24;5.10;;;2.30;;
45792;SDS011;31495;42.740;22.908;2022-11-25T00:52:24;3.38;;;1.75;;
45792;SDS011;31495;42.740;22.908;2022-11-25T00:53:25;4.80;;;2.38;;
45792;SDS011;31495;42.740;22.908;2022-11-25T00:54:24;3.90;;;2.22;;
45792;SDS011;31495;42.740;22.908;2022-11-25T00:55:24;4.63;;;2.47;;
45792;SDS011;31495;42.740;22.908;2022-11-25T00:56:23;6.10;;;3.17;;
45792;SDS011;31495;42.740;22.908;2022-11-25T00:57:23;4.18;;;2.22;;
45792;SDS011;31495;42.740;22.908;2022-11-25T00:58:22;4.43;;;2.75;;
45792;SDS011;31495;42.740;22.908;2022-11-25T00:59:21;3.78;;;2.00;;
45792;SDS011;31495;42.740;22.908;2022-11-25T01:00:21;6.20;;;2.78;;
45792;SDS011;31495;42.740;22.908;2022-11-25T01:01:20;4.40;;;2.42;;
45792;SDS011;31495;42.740;22.908;2022-11-25T01:02:20;4.13;;;2.47;;
45792;SDS011;31495;42.740;22.908;2022-11-25T01:03:20;3.78;;;2.30;;
45792;SDS011;31495;42.740;22.908;2022-11-25T01:04:20;4.60;;;2.17;;
45792;SDS011;31495;42.740;22.908;2022-11-25T01:05:19;3.88;;;2.10;;
45792;SDS011;31495;42.740;22.908;2022-11-25T01:06:19;6.20;;;2.90;;
45792;SDS011;31495;42.740;22.908;2022-11-25T01:07:20;4.55;;;2.53;;
45792;SDS011;31495;42.740;22.908;2022-11-25T01:08:19;4.28;;;2.53;;
45792;SDS011;31495;42.740;22.908;2022-11-25T01:09:19;4.03;;;2.28;;
45792;SDS011;31495;42.740;22.908;2022-11-25T01:10:18;5.82;;;2.13;;
45792;SDS011;31495;42.740;22.908;2022-11-25T01:11:18;5.30;;;3.08;;
45792;SDS011;31495;42.740;22.908;2022-11-25T01:12:19;4.13;;;2.50;;
45792;SDS011;31495;42.740;22.908;2022-11-25T01:13:19;5.07;;;2.40;;
45792;SDS011;31495;42.740;22.908;2022-11-25T01:14:19;5.32;;;2.80;;
45792;SDS011;31495;42.740;22.908;2022-11-25T01:15:19;8.27;;;3.17;;
45792;SDS011;31495;42.740;22.908;2022-11-25T01:16:19;6.55;;;3.40;;
45792;SDS011;31495;42.740;22.908;2022-11-25T01:17:19;6.45;;;2.70;;
45792;SDS011;31495;42.740;22.908;2022-11-25T01:18:18;3.97;;;2.03;;
45792;SDS011;31495;42.740;22.908;2022-11-25T01:19:18;5.30;;;2.30;;
45792;SDS011;31495;42.740;22.908;2022-11-25T01:20:18;4.95;;;2.35;;
45792;SDS011;31495;42.740;22.908;2022-11-25T01:21:22;5.60;;;3.00;;
45792;SDS011;31495;42.740;22.908;2022-11-25T01:22:23;8.60;;;3.33;;
45792;SDS011;31495;42.740;22.908;2022-11-25T01:23:22;5.88;;;3.15;;
45792;SDS011;31495;42.740;22.908;2022-11-25T01:24:21;6.13;;;3.55;;
45792;SDS011;31495;42.740;22.908;2022-11-25T01:25:21;4.65;;;2.70;;
45792;SDS011;31495;42.740;22.908;2022-11-25T01:26:21;3.80;;;1.92;;
45792;SDS011;31495;42.740;22.908;2022-11-25T01:28:22;6.05;;;2.70;;
45792;SDS011;31495;42.740;22.908;2022-11-25T01:29:21;4.63;;;2.75;;
45792;SDS011;31495;42.740;22.908;2022-11-25T01:30:21;6.53;;;2.45;;
45792;SDS011;31495;42.740;22.908;2022-11-25T01:31:21;5.05;;;2.17;;
45792;SDS011;31495;42.740;22.908;2022-11-25T01:32:22;5.38;;;2.88;;
45792;SDS011;31495;42.740;22.908;2022-11-25T01:33:21;5.82;;;3.22;;
45792;SDS011;31495;42.740;22.908;2022-11-25T01:34:22;4.65;;;2.67;;
45792;SDS011;31495;42.740;22.908;2022-11-25T01:35:23;5.35;;;2.83;;
45792;SDS011;31495;42.740;22.908;2022-11-25T01:36:22;3.05;;;1.90;;
45792;SDS011;31495;42.740;22.908;2022-11-25T01:37:22;3.78;;;2.25;;
45792;SDS011;31495;42.740;22.908;2022-11-25T01:38:22;3.97;;;1.90;;
45792;SDS011;31495;42.740;22.908;2022-11-25T01:39:22;2.92;;;1.98;;
45792;SDS011;31495;42.740;22.908;2022-11-25T01:40:23;4.45;;;2.50;;
45792;SDS011;31495;42.740;22.908;2022-11-25T01:41:23;5.40;;;2.63;;
45792;SDS011;31495;42.740;22.908;2022-11-25T01:42:27;6.07;;;2.78;;
45792;SDS011;31495;42.740;22.908;2022-11-25T01:43:28;4.28;;;2.83;;
45792;SDS011;31495;42.740;22.908;2022-11-25T01:44:29;4.15;;;2.17;;
45792;SDS011;31495;42.740;22.908;2022-11-25T01:45:36;6.35;;;2.22;;
45792;SDS011;31495;42.740;22.908;2022-11-25T01:47:38;5.70;;;2.47;;
45792;SDS011;31495;42.740;22.908;2022-11-25T01:48:51;4.93;;;2.40;;
45792;SDS011;31495;42.740;22.908;2022-11-25T01:50:08;5.78;;;2.88;;
45792;SDS011;31495;42.740;22.908;2022-11-25T01:51:18;5.38;;;3.40;;
45792;SDS011;31495;42.740;22.908;2022-11-25T01:52:26;5.80;;;2.85;;
45792;SDS011;31495;42.740;22.908;2022-11-25T01:53:29;5.07;;;2.35;;
45792;SDS011;31495;42.740;22.908;2022-11-25T01:54:30;4.38;;;2.33;;
45792;SDS011;31495;42.740;22.908;2022-11-25T01:55:34;8.07;;;3.10;;
45792;SDS011;31495;42.740;22.908;2022-11-25T01:56:41;6.35;;;3.13;;
45792;SDS011;31495;42.740;22.908;2022-11-25T01:57:49;6.82;;;3.10;;
45792;SDS011;31495;42.740;22.908;2022-11-25T01:58:52;6.78;;;2.90;;
45792;SDS011;31495;42.740;22.908;2022-11-25T01:59:52;4.90;;;2.97;;
45792;SDS011;31495;42.740;22.908;2022-11-25T02:00:55;7.32;;;3.42;;
45792;SDS011;31495;42.740;22.908;2022-11-25T02:01:55;4.85;;;3.08;;
45792;SDS011;31495;42.740;22.908;2022-11-25T02:02:56;10.13;;;3.35;;
45792;SDS011;31495;42.740;22.908;2022-11-25T02:03:57;5.43;;;2.95;;
45792;SDS011;31495;42.740;22.908;2022-11-25T02:04:57;8.27;;;3.75;;
45792;SDS011;31495;42.740;22.908;2022-11-25T02:06:02;5.90;;;3.50;;
45792;SDS011;31495;42.740;22.908;2022-11-25T02:07:10;4.97;;;3.03;;
45792;SDS011;31495;42.740;22.908;2022-11-25T02:08:13;3.97;;;2.17;;
45792;SDS011;31495;42.740;22.908;2022-11-25T02:09:15;4.97;;;2.78;;
45792;SDS011;31495;42.740;22.908;2022-11-25T02:10:18;4.20;;;2.83;;
45792;SDS011;31495;42.740;22.908;2022-11-25T02:11:22;8.30;;;2.88;;
45792;SDS011;31495;42.740;22.908;2022-11-25T02:12:25;6.38;;;2.80;;
45792;SDS011;31495;42.740;22.908;2022-11-25T02:13:27;5.95;;;2.63;;
45792;SDS011;31495;42.740;22.908;2022-11-25T02:14:27;5.03;;;2.90;;
45792;SDS011;31495;42.740;22.908;2022-11-25T02:15:27;5.55;;;2.90;;
45792;SDS011;31495;42.740;22.908;2022-11-25T02:16:27;6.28;;;2.78;;
45792;SDS011;31495;42.740;22.908;2022-11-25T02:17:27;6.38;;;3.30;;
45792;SDS011;31495;42.740;22.908;2022-11-25T02:18:27;5.85;;;2.80;;
45792;SDS011;31495;42.740;22.908;2022-11-25T02:21:02;6.10;;;2.72;;
45792;SDS011;31495;42.740;22.908;2022-11-25T02:22:02;4.50;;;2.85;;
45792;SDS011;31495;42.740;22.908;2022-11-25T02:24:40;6.38;;;2.55;;
45792;SDS011;31495;42.740;22.908;2022-11-25T02:25:43;6.45;;;3.13;;
45792;SDS011;31495;42.740;22.908;2022-11-25T02:27:45;10.05;;;2.88;;
45792;SDS011;31495;42.740;22.908;2022-11-25T02:28:47;5.45;;;2.65;;
45792;SDS011;31495;42.740;22.908;2022-11-25T02:29:47;4.68;;;2.55;;
45792;SDS011;31495;42.740;22.908;2022-11-25T02:30:47;4.82;;;2.25;;
45792;SDS011;31495;42.740;22.908;2022-11-25T02:31:48;6.78;;;2.53;;
45792;SDS011;31495;42.740;22.908;2022-11-25T02:32:49;2.83;;;1.80;;
45792;SDS011;31495;42.740;22.908;2022-11-25T02:33:48;3.13;;;1.60;;
45792;SDS011;31495;42.740;22.908;2022-11-25T02:34:48;5.50;;;2.28;;
45792;SDS011;31495;42.740;22.908;2022-11-25T02:35:53;6.20;;;2.92;;
45792;SDS011;31495;42.740;22.908;2022-11-25T02:36:55;6.03;;;2.42;;
45792;SDS011;31495;42.740;22.908;2022-11-25T02:37:55;6.13;;;3.08;;
45792;SDS011;31495;42.740;22.908;2022-11-25T02:38:58;6.00;;;3.35;;
45792;SDS011;31495;42.740;22.908;2022-11-25T02:39:59;4.75;;;2.40;;
45792;SDS011;31495;42.740;22.908;2022-11-25T02:41:03;4.80;;;3.08;;
45792;SDS011;31495;42.740;22.908;2022-11-25T02:42:08;3.58;;;2.00;;
45792;SDS011;31495;42.740;22.908;2022-11-25T02:43:08;4.10;;;1.98;;
45792;SDS011;31495;42.740;22.908;2022-11-25T02:44:08;5.70;;;2.22;;
45792;SDS011;31495;42.740;22.908;2022-11-25T02:45:08;4.30;;;2.38;;
45792;SDS011;31495;42.740;22.908;2022-11-25T02:46:13;7.85;;;2.22;;
45792;SDS011;31495;42.740;22.908;2022-11-25T02:47:14;5.65;;;2.25;;
45792;SDS011;31495;42.740;22.908;2022-11-25T02:48:14;3.63;;;1.75;;
45792;SDS011;31495;42.740;22.908;2022-11-25T02:49:14;3.90;;;2.38;;
45792;SDS011;31495;42.740;22.908;2022-11-25T02:50:14;5.13;;;2.05;;
45792;SDS011;31495;42.740;22.908;2022-11-25T02:51:15;4.20;;;1.95;;
45792;SDS011;31495;42.740;22.908;2022-11-25T02:52:16;4.43;;;2.25;;
45792;SDS011;31495;42.740;22.908;2022-11-25T02:53:15;4.38;;;1.83;;
45792;SDS011;31495;42.740;22.908;2022-11-25T02:54:15;5.75;;;1.90;;
45792;SDS011;31495;42.740;22.908;2022-11-25T02:55:15;3.92;;;1.90;;
45792;SDS011;31495;42.740;22.908;2022-11-25T02:56:15;5.82;;;2.25;;
45792;SDS011;31495;42.740;22.908;2022-11-25T02:57:15;5.45;;;1.98;;
45792;SDS011;31495;42.740;22.908;2022-11-25T02:58:15;4.85;;;1.70;;
45792;SDS011;31495;42.740;22.908;2022-11-25T02:59:15;3.97;;;1.58;;
45792;SDS011;31495;42.740;22.908;2022-11-25T03:00:14;2.35;;;1.52;;
45792;SDS011;31495;42.740;22.908;2022-11-25T03:01:14;3.85;;;1.60;;
45792;SDS011;31495;42.740;22.908;2022-11-25T03:02:14;2.75;;;1.30;;
45792;SDS011;31495;42.740;22.908;2022-11-25T03:03:14;2.25;;;0.82;;
45792;SDS011;31495;42.740;22.908;2022-11-25T03:04:13;1.50;;;0.90;;
45792;SDS011;31495;42.740;22.908;2022-11-25T03:05:13;2.53;;;1.08;;
45792;SDS011;31495;42.740;22.908;2022-11-25T03:06:12;4.55;;;1.70;;
45792;SDS011;31495;42.740;22.908;2022-11-25T03:07:12;3.25;;;1.50;;
45792;SDS011;31495;42.740;22.908;2022-11-25T03:08:11;2.55;;;1.23;;
45792;SDS011;31495;42.740;22.908;2022-11-25T03:09:11;2.47;;;1.33;;
45792;SDS011;31495;42.740;22.908;2022-11-25T03:10:11;2.58;;;1.20;;
45792;SDS011;31495;42.740;22.908;2022-11-25T03:11:10;2.63;;;1.35;;
45792;SDS011;31495;42.740;22.908;2022-11-25T03:12:10;3.55;;;1.67;;
45792;SDS011;31495;42.740;22.908;2022-11-25T03:13:19;2.83;;;1.30;;
45792;SDS011;31495;42.740;22.908;2022-11-25T03:14:19;2.67;;;0.98;;
45792;SDS011;31495;42.740;22.908;2022-11-25T03:15:18;2.50;;;1.05;;
45792;SDS011;31495;42.740;22.908;2022-11-25T03:16:18;2.92;;;1.30;;
45792;SDS011;31495;42.740;22.908;2022-11-25T03:17:17;3.55;;;1.58;;
45792;SDS011;31495;42.740;22.908;2022-11-25T03:18:17;2.47;;;0.93;;
45792;SDS011;31495;42.740;22.908;2022-11-25T03:19:16;3.05;;;1.83;;
45792;SDS011;31495;42.740;22.908;2022-11-25T03:20:16;3.50;;;1.20;;
45792;SDS011;31495;42.740;22.908;2022-11-25T03:21:16;4.07;;;1.23;;
45792;SDS011;31495;42.740;22.908;2022-11-25T03:22:15;2.83;;;1.27;;
45792;SDS011;31495;42.740;22.908;2022-11-25T03:23:15;3.40;;;1.52;;
45792;SDS011;31495;42.740;22.908;2022-11-25T03:24:15;3.20;;;1.50;;
45792;SDS011;31495;42.740;22.908;2022-11-25T03:25:14;2.13;;;1.30;;
45792;SDS011;31495;42.740;22.908;2022-11-25T03:26:14;1.77;;;1.08;;
45792;SDS011;31495;42.740;22.908;2022-11-25T03:27:14;1.88;;;0.95;;
45792;SDS011;31495;42.740;22.908;2022-11-25T03:28:13;6.13;;;1.80;;
45792;SDS011;31495;42.740;22.908;2022-11-25T03:29:13;3.00;;;1.45;;
45792;SDS011;31495;42.740;22.908;2022-11-25T03:30:14;3.90;;;1.42;;
45792;SDS011;31495;42.740;22.908;2022-11-25T03:31:15;3.60;;;1.40;;
45792;SDS011;31495;42.740;22.908;2022-11-25T03:32:15;3.35;;;1.55;;
45792;SDS011;31495;42.740;22.908;2022-11-25T03:33:14;5.95;;;2.35;;
45792;SDS011;31495;42.740;22.908;2022-11-25T03:34:14;3.35;;;1.42;;
45792;SDS011;31495;42.740;22.908;2022-11-25T03:35:14;10.57;;;2.70;;
45792;SDS011;31495;42.740;22.908;2022-11-25T03:36:14;5.13;;;2.40;;
45792;SDS011;31495;42.740;22.908;2022-11-25T03:37:13;3.33;;;1.92;;
45792;SDS011;31495;42.740;22.908;2022-11-25T03:38:13;4.25;;;2.13;;
45792;SDS011;31495;42.740;22.908;2022-11-25T03:39:12;3.90;;;1.92;;
45792;SDS011;31495;42.740;22.908;2022-11-25T03:40:12;3.78;;;2.15;;
45792;SDS011;31495;42.740;22.908;2022-11-25T03:41:13;1.58;;;1.15;;
45792;SDS011;31495;42.740;22.908;2022-11-25T03:42:12;2.70;;;1.40;;
45792;SDS011;31495;42.740;22.908;2022-11-25T03:43:12;2.80;;;1.40;;
45792;SDS011;31495;42.740;22.908;2022-11-25T03:44:11;4.03;;;2.00;;
45792;SDS011;31495;42.740;22.908;2022-11-25T03:45:11;3.30;;;1.80;;
45792;SDS011;31495;42.740;22.908;2022-11-25T03:46:12;3.03;;;1.20;;
45792;SDS011;31495;42.740;22.908;2022-11-25T03:47:12;3.35;;;1.58;;
45792;SDS011;31495;42.740;22.908;2022-11-25T03:48:11;2.85;;;1.65;;
45792;SDS011;31495;42.740;22.908;2022-11-25T03:49:10;2.50;;;1.20;;
45792;SDS011;31495;42.740;22.908;2022-11-25T03:50:10;2.67;;;1.00;;
45792;SDS011;31495;42.740;22.908;2022-11-25T03:51:12;3.58;;;1.50;;
45792;SDS011;31495;42.740;22.908;2022-11-25T03:52:12;2.72;;;1.52;;
45792;SDS011;31495;42.740;22.908;2022-11-25T03:53:11;3.15;;;1.75;;
45792;SDS011;31495;42.740;22.908;2022-11-25T03:54:11;5.13;;;1.83;;
45792;SDS011;31495;42.740;22.908;2022-11-25T03:55:10;3.47;;;2.08;;
45792;SDS011;31495;42.740;22.908;2022-11-25T03:56:10;5.78;;;1.98;;
45792;SDS011;31495;42.740;22.908;2022-11-25T03:57:10;3.47;;;1.92;;
45792;SDS011;31495;42.740;22.908;2022-11-25T03:58:10;4.10;;;2.03;;
45792;SDS011;31495;42.740;22.908;2022-11-25T03:59:10;4.25;;;2.03;;
45792;SDS011;31495;42.740;22.908;2022-11-25T04:00:09;3.20;;;1.77;;
45792;SDS011;31495;42.740;22.908;2022-11-25T04:01:09;2.65;;;1.48;;
45792;SDS011;31495;42.740;22.908;2022-11-25T04:02:08;2.90;;;1.48;;
45792;SDS011;31495;42.740;22.908;2022-11-25T04:03:08;3.83;;;1.33;;
45792;SDS011;31495;42.740;22.908;2022-11-25T04:04:08;2.25;;;1.38;;
45792;SDS011;31495;42.740;22.908;2022-11-25T04:05:07;3.63;;;1.50;;
45792;SDS011;31495;42.740;22.908;2022-11-25T04:06:07;4.13;;;1.48;;
45792;SDS011;31495;42.740;22.908;2022-11-25T04:07:06;1.88;;;1.20;;
45792;SDS011;31495;42.740;22.908;2022-11-25T04:08:05;2.00;;;1.10;;
45792;SDS011;31495;42.740;22.908;2022-11-25T04:09:05;1.92;;;0.88;;
45792;SDS011;31495;42.740;22.908;2022-11-25T04:10:06;3.05;;;1.25;;
45792;SDS011;31495;42.740;22.908;2022-11-25T04:11:06;6.03;;;1.20;;
45792;SDS011;31495;42.740;22.908;2022-11-25T04:12:06;2.63;;;1.20;;
45792;SDS011;31495;42.740;22.908;2022-11-25T04:13:24;3.40;;;1.48;;
45792;SDS011;31495;42.740;22.908;2022-11-25T04:14:23;4.38;;;1.83;;
45792;SDS011;31495;42.740;22.908;2022-11-25T04:15:23;4.07;;;1.33;;
45792;SDS011;31495;42.740;22.908;2022-11-25T04:16:23;3.85;;;2.00;;
45792;SDS011;31495;42.740;22.908;2022-11-25T04:17:24;3.00;;;1.80;;
45792;SDS011;31495;42.740;22.908;2022-11-25T04:18:24;2.92;;;1.30;;
45792;SDS011;31495;42.740;22.908;2022-11-25T04:19:23;3.17;;;1.73;;
45792;SDS011;31495;42.740;22.908;2022-11-25T04:20:23;3.22;;;1.83;;
45792;SDS011;31495;42.740;22.908;2022-11-25T04:21:22;3.60;;;1.88;;
45792;SDS011;31495;42.740;22.908;2022-11-25T04:22:22;3.63;;;2.05;;
45792;SDS011;31495;42.740;22.908;2022-11-25T04:23:21;2.95;;;1.38;;
45792;SDS011;31495;42.740;22.908;2022-11-25T04:24:21;3.83;;;1.83;;
45792;SDS011;31495;42.740;22.908;2022-11-25T04:25:21;4.65;;;1.75;;
45792;SDS011;31495;42.740;22.908;2022-11-25T04:26:20;2.75;;;1.10;;
45792;SDS011;31495;42.740;22.908;2022-11-25T04:27:20;7.40;;;1.33;;
45792;SDS011;31495;42.740;22.908;2022-11-25T04:28:19;1.85;;;0.98;;
45792;SDS011;31495;42.740;22.908;2022-11-25T04:29:19;2.47;;;0.98;;
45792;SDS011;31495;42.740;22.908;2022-11-25T04:30:19;1.75;;;0.85;;
45792;SDS011;31495;42.740;22.908;2022-11-25T04:31:18;1.67;;;0.90;;
45792;SDS011;31495;42.740;22.908;2022-11-25T04:32:18;3.47;;;1.50;;
45792;SDS011;31495;42.740;22.908;2022-11-25T04:33:17;2.53;;;1.40;;
45792;SDS011;31495;42.740;22.908;2022-11-25T04:34:17;2.35;;;1.20;;
45792;SDS011;31495;42.740;22.908;2022-11-25T04:35:16;3.35;;;1.70;;
45792;SDS011;31495;42.740;22.908;2022-11-25T04:36:15;3.90;;;2.25;;
45792;SDS011;31495;42.740;22.908;2022-11-25T04:37:15;6.32;;;3.08;;
45792;SDS011;31495;42.740;22.908;2022-11-25T04:38:14;3.75;;;1.92;;
45792;SDS011;31495;42.740;22.908;2022-11-25T04:39:14;4.47;;;1.80;;
45792;SDS011;31495;42.740;22.908;2022-11-25T04:40:13;4.63;;;1.90;;
45792;SDS011;31495;42.740;22.908;2022-11-25T04:41:13;5.70;;;2.90;;
45792;SDS011;31495;42.740;22.908;2022-11-25T04:42:12;4.63;;;1.92;;
45792;SDS011;31495;42.740;22.908;2022-11-25T04:43:30;3.17;;;1.40;;
45792;SDS011;31495;42.740;22.908;2022-11-25T04:44:30;2.75;;;1.20;;
45792;SDS011;31495;42.740;22.908;2022-11-25T04:45:29;3.35;;;1.40;;
45792;SDS011;31495;42.740;22.908;2022-11-25T04:46:34;3.10;;;1.58;;
45792;SDS011;31495;42.740;22.908;2022-11-25T04:47:36;5.28;;;2.50;;
45792;SDS011;31495;42.740;22.908;2022-11-25T04:48:36;3.55;;;1.73;;
45792;SDS011;31495;42.740;22.908;2022-11-25T04:49:36;4.07;;;2.13;;
45792;SDS011;31495;42.740;22.908;2022-11-25T04:50:35;3.45;;;1.63;;
45792;SDS011;31495;42.740;22.908;2022-11-25T04:51:34;3.22;;;1.30;;
45792;SDS011;31495;42.740;22.908;2022-11-25T04:52:34;3.25;;;1.52;;
45792;SDS011;31495;42.740;22.908;2022-11-25T04:53:33;4.25;;;1.65;;
45792;SDS011;31495;42.740;22.908;2022-11-25T04:54:33;2.35;;;1.00;;
45792;SDS011;31495;42.740;22.908;2022-11-25T04:55:32;2.95;;;1.60;;
45792;SDS011;31495;42.740;22.908;2022-11-25T04:56:32;1.83;;;0.98;;
45792;SDS011;31495;42.740;22.908;2022-11-25T04:57:31;2.53;;;1.23;;
45792;SDS011;31495;42.740;22.908;2022-11-25T04:58:31;2.55;;;1.10;;
45792;SDS011;31495;42.740;22.908;2022-11-25T04:59:49;2.15;;;1.08;;
45792;SDS011;31495;42.740;22.908;2022-11-25T05:00:49;3.00;;;1.33;;
45792;SDS011;31495;42.740;22.908;2022-11-25T05:01:48;3.35;;;1.48;;
45792;SDS011;31495;42.740;22.908;2022-11-25T05:02:48;2.35;;;1.10;;
45792;SDS011;31495;42.740;22.908;2022-11-25T05:03:48;2.35;;;1.25;;
45792;SDS011;31495;42.740;22.908;2022-11-25T05:04:48;2.80;;;1.42;;
45792;SDS011;31495;42.740;22.908;2022-11-25T05:05:49;1.75;;;0.98;;
45792;SDS011;31495;42.740;22.908;2022-11-25T05:06:48;2.00;;;0.90;;
45792;SDS011;31495;42.740;22.908;2022-11-25T05:07:49;2.40;;;1.35;;
45792;SDS011;31495;42.740;22.908;2022-11-25T05:08:49;2.28;;;1.13;;
45792;SDS011;31495;42.740;22.908;2022-11-25T05:09:49;2.45;;;1.80;;
45792;SDS011;31495;42.740;22.908;2022-11-25T05:10:49;3.85;;;1.73;;
45792;SDS011;31495;42.740;22.908;2022-11-25T05:11:48;5.20;;;1.85;;
45792;SDS011;31495;42.740;22.908;2022-11-25T05:12:48;4.95;;;2.45;;
45792;SDS011;31495;42.740;22.908;2022-11-25T05:13:47;4.50;;;2.17;;
45792;SDS011;31495;42.740;22.908;2022-11-25T05:14:47;4.15;;;2.58;;
45792;SDS011;31495;42.740;22.908;2022-11-25T05:15:48;3.67;;;2.28;;
45792;SDS011;31495;42.740;22.908;2022-11-25T05:16:47;4.07;;;2.33;;
45792;SDS011;31495;42.740;22.908;2022-11-25T05:17:46;3.60;;;1.95;;
45792;SDS011;31495;42.740;22.908;2022-11-25T05:18:46;3.70;;;1.88;;
45792;SDS011;31495;42.740;22.908;2022-11-25T05:19:45;7.30;;;3.75;;
45792;SDS011;31495;42.740;22.908;2022-11-25T05:20:45;6.82;;;2.88;;
45792;SDS011;31495;42.740;22.908;2022-11-25T05:21:45;7.78;;;3.00;;
45792;SDS011;31495;42.740;22.908;2022-11-25T05:22:44;4.07;;;1.98;;
45792;SDS011;31495;42.740;22.908;2022-11-25T05:23:44;3.88;;;1.80;;
45792;SDS011;31495;42.740;22.908;2022-11-25T05:24:43;7.85;;;3.35;;
45792;SDS011;31495;42.740;22.908;2022-11-25T05:25:43;5.32;;;2.75;;
45792;SDS011;31495;42.740;22.908;2022-11-25T05:26:43;3.58;;;2.50;;
45792;SDS011;31495;42.740;22.908;2022-11-25T05:27:42;7.90;;;3.83;;
45792;SDS011;31495;42.740;22.908;2022-11-25T05:28:42;12.60;;;5.43;;
45792;SDS011;31495;42.740;22.908;2022-11-25T05:29:41;7.70;;;3.92;;
45792;SDS011;31495;42.740;22.908;2022-11-25T05:30:41;8.13;;;3.95;;
45792;SDS011;31495;42.740;22.908;2022-11-25T05:31:41;5.22;;;2.97;;
45792;SDS011;31495;42.740;22.908;2022-11-25T05:32:40;6.97;;;2.97;;
45792;SDS011;31495;42.740;22.908;2022-11-25T05:33:40;8.32;;;3.50;;
45792;SDS011;31495;42.740;22.908;2022-11-25T05:34:39;7.40;;;2.70;;
45792;SDS011;31495;42.740;22.908;2022-11-25T05:35:39;6.00;;;2.38;;
45792;SDS011;31495;42.740;22.908;2022-11-25T05:36:39;3.13;;;1.75;;
45792;SDS011;31495;42.740;22.908;2022-11-25T05:37:38;4.65;;;2.03;;
45792;SDS011;31495;42.740;22.908;2022-11-25T05:38:37;3.63;;;1.77;;
45792;SDS011;31495;42.740;22.908;2022-11-25T05:39:37;4.85;;;2.00;;
45792;SDS011;31495;42.740;22.908;2022-11-25T05:40:37;5.65;;;2.60;;
45792;SDS011;31495;42.740;22.908;2022-11-25T05:41:36;3.80;;;2.10;;
45792;SDS011;31495;42.740;22.908;2022-11-25T05:42:36;4.10;;;2.08;;
45792;SDS011;31495;42.740;22.908;2022-11-25T05:43:36;3.92;;;1.88;;
45792;SDS011;31495;42.740;22.908;2022-11-25T05:44:35;3.78;;;1.67;;
45792;SDS011;31495;42.740;22.908;2022-11-25T05:45:36;4.13;;;2.10;;
45792;SDS011;31495;42.740;22.908;2022-11-25T05:46:36;4.25;;;2.20;;
45792;SDS011;31495;42.740;22.908;2022-11-25T05:47:36;3.33;;;1.40;;
45792;SDS011;31495;42.740;22.908;2022-11-25T05:48:35;6.40;;;2.53;;
45792;SDS011;31495;42.740;22.908;2022-11-25T05:49:35;3.72;;;2.08;;
45792;SDS011;31495;42.740;22.908;2022-11-25T05:50:35;3.85;;;2.03;;
45792;SDS011;31495;42.740;22.908;2022-11-25T05:51:35;12.50;;;5.75;;
45792;SDS011;31495;42.740;22.908;2022-11-25T05:52:35;6.05;;;3.50;;
45792;SDS011;31495;42.740;22.908;2022-11-25T05:53:34;7.35;;;3.58;;
45792;SDS011;31495;42.740;22.908;2022-11-25T05:54:34;9.45;;;4.07;;
45792;SDS011;31495;42.740;22.908;2022-11-25T05:55:33;9.23;;;3.95;;
45792;SDS011;31495;42.740;22.908;2022-11-25T05:56:33;6.60;;;3.13;;
45792;SDS011;31495;42.740;22.908;2022-11-25T05:57:32;5.20;;;2.80;;
45792;SDS011;31495;42.740;22.908;2022-11-25T05:58:32;5.30;;;2.40;;
45792;SDS011;31495;42.740;22.908;2022-11-25T05:59:32;5.18;;;2.58;;
45792;SDS011;31495;42.740;22.908;2022-11-25T06:00:31;8.85;;;4.15;;
45792;SDS011;31495;42.740;22.908;2022-11-25T06:01:31;6.13;;;3.47;;
45792;SDS011;31495;42.740;22.908;2022-11-25T06:02:31;6.97;;;4.22;;
45792;SDS011;31495;42.740;22.908;2022-11-25T06:03:31;10.32;;;4.65;;
45792;SDS011;31495;42.740;22.908;2022-11-25T06:04:30;12.88;;;5.32;;
45792;SDS011;31495;42.740;22.908;2022-11-25T06:05:30;5.40;;;2.45;;
45792;SDS011;31495;42.740;22.908;2022-11-25T06:06:33;5.72;;;2.92;;